Time,TemperatureF,DewpointF,PressureIn,WindDirection,WindDirectionDegrees,WindSpeedMPH,WindSpeedGustMPH,Humidity,HourlyPrecipIn,Conditions,Clouds,dailyrainin,SoftwareType,DateUTC
2013-03-13 00:03:00,58.0,54.0,30.02,NW,308,9.0,13.0,87,-99.99,,,-99.99,,2013-03-13 04:03:00,
2013-03-13 00:13:00,58.0,54.0,30.02,NW,308,9.0,13.0,87,-99.99,,,-99.99,,2013-03-13 04:13:00,
2013-03-13 00:23:00,57.0,54.0,30.03,WNW,297,7.0,10.0,89,-99.99,,,-99.99,,2013-03-13 04:23:00,
2013-03-13 00:32:00,57.0,54.0,30.03,WNW,297,7.0,10.0,89,-99.99,,,-99.99,,2013-03-13 04:32:00,
2013-03-13 00:43:00,56.0,53.0,30.03,WNW,284,5.0,10.0,89,-99.99,,,-99.99,,2013-03-13 04:43:00,
2013-03-13 00:53:00,56.0,53.0,30.03,WNW,284,5.0,10.0,89,-99.99,,,-99.99,,2013-03-13 04:53:00,
2013-03-13 01:02:00,56.0,53.0,30.03,WNW,283,5.0,9.0,90,-99.99,,,-99.99,,2013-03-13 05:02:00,
2013-03-13 01:13:00,56.0,53.0,30.03,WNW,283,5.0,9.0,90,-99.99,,,-99.99,,2013-03-13 05:13:00,
2013-03-13 01:22:00,56.0,53.0,30.03,WNW,301,7.0,14.0,89,-99.99,,,-99.99,,2013-03-13 05:22:00,
2013-03-13 01:32:00,56.0,53.0,30.03,NW,307,9.0,14.0,89,-99.99,,,-99.99,,2013-03-13 05:32:00,
2013-03-13 01:42:00,56.0,53.0,30.03,NW,308,11.0,14.0,89,-99.99,,,-99.99,,2013-03-13 05:42:00,
2013-03-13 01:53:00,56.0,53.0,30.03,NW,308,11.0,14.0,89,-99.99,,,-99.99,,2013-03-13 05:53:00,
2013-03-13 02:02:00,56.0,53.0,30.03,NW,318,13.0,17.0,89,-99.99,,,-99.99,,2013-03-13 06:02:00,
2013-03-13 02:13:00,56.0,53.0,30.03,NW,317,14.0,18.0,88,-99.99,,,-99.99,,2013-03-13 06:13:00,
2013-03-13 02:23:00,57.0,53.0,30.04,NW,320,13.0,18.0,88,-99.99,,,-99.99,,2013-03-13 06:23:00,
2013-03-13 02:32:00,57.0,53.0,30.04,NW,320,13.0,18.0,88,-99.99,,,-99.99,,2013-03-13 06:32:00,
2013-03-13 02:42:00,56.0,53.0,30.03,NW,324,12.0,17.0,88,-99.99,,,-99.99,,2013-03-13 06:42:00,
2013-03-13 02:53:00,56.0,53.0,30.03,NW,324,12.0,17.0,88,-99.99,,,-99.99,,2013-03-13 06:53:00,
2013-03-13 03:03:00,56.0,53.0,30.03,NW,324,12.0,17.0,88,-99.99,,,-99.99,,2013-03-13 07:03:00,
2013-03-13 03:12:00,57.0,53.0,30.03,NNW,330,13.0,18.0,87,-99.99,,,-99.99,,2013-03-13 07:12:00,
2013-03-13 03:23:00,57.0,53.0,30.03,NNW,332,13.0,18.0,87,-99.99,,,-99.99,,2013-03-13 07:23:00,
2013-03-13 03:33:00,56.0,52.0,30.03,NNW,332,13.0,16.0,86,-99.99,,,-99.99,,2013-03-13 07:33:00,
2013-03-13 03:42:00,56.0,52.0,30.03,NNW,332,13.0,16.0,86,-99.99,,,-99.99,,2013-03-13 07:42:00,
2013-03-13 03:53:00,56.0,52.0,30.03,NNW,332,13.0,16.0,86,-99.99,,,-99.99,,2013-03-13 07:53:00,
2013-03-13 04:03:00,56.0,52.0,30.02,NNW,327,12.0,16.0,86,-99.99,,,-99.99,,2013-03-13 08:03:00,
2013-03-13 04:12:00,56.0,52.0,30.02,NNW,327,12.0,16.0,86,-99.99,,,-99.99,,2013-03-13 08:12:00,
2013-03-13 04:23:00,56.0,52.0,30.03,NW,326,11.0,16.0,86,-99.99,,,-99.99,,2013-03-13 08:23:00,
2013-03-13 04:32:00,56.0,52.0,30.03,NW,323,11.0,15.0,85,-99.99,,,-99.99,,2013-03-13 08:32:00,
2013-03-13 04:43:00,56.0,52.0,30.03,NW,323,11.0,15.0,85,-99.99,,,-99.99,,2013-03-13 08:43:00,
2013-03-13 04:54:00,56.0,52.0,30.03,NW,323,11.0,15.0,85,-99.99,,,-99.99,,2013-03-13 08:54:00,
2013-03-13 05:02:00,56.0,51.0,30.02,NW,323,11.0,16.0,85,-99.99,,,-99.99,,2013-03-13 09:02:00,
2013-03-13 05:13:00,56.0,51.0,30.02,NW,323,11.0,16.0,85,-99.99,,,-99.99,,2013-03-13 09:13:00,
2013-03-13 05:23:00,56.0,50.0,30.03,NW,317,12.0,17.0,82,-99.99,,,-99.99,,2013-03-13 09:23:00,
2013-03-13 05:32:00,56.0,50.0,30.03,NW,317,12.0,17.0,82,-99.99,,,-99.99,,2013-03-13 09:32:00,
2013-03-13 05:42:00,56.0,50.0,30.04,NW,323,12.0,17.0,82,-99.99,,,-99.99,,2013-03-13 09:42:00,
2013-03-13 05:52:00,56.0,50.0,30.04,NW,323,12.0,17.0,82,-99.99,,,-99.99,,2013-03-13 09:52:00,
2013-03-13 06:02:00,55.0,50.0,30.04,NW,323,13.0,18.0,80,-99.99,,,-99.99,,2013-03-13 10:02:00,
2013-03-13 06:12:00,55.0,50.0,30.04,NW,323,13.0,18.0,80,-99.99,,,-99.99,,2013-03-13 10:12:00,
2013-03-13 06:22:00,55.0,49.0,30.04,NNW,329,14.0,19.0,78,-99.99,,,-99.99,,2013-03-13 10:22:00,
2013-03-13 06:32:00,55.0,49.0,30.04,NNW,329,14.0,19.0,78,-99.99,,,-99.99,,2013-03-13 10:32:00,
2013-03-13 06:42:00,55.0,49.0,30.05,NNW,330,15.0,18.0,78,-99.99,,,-99.99,,2013-03-13 10:42:00,
2013-03-13 06:52:00,55.0,49.0,30.05,NNW,330,15.0,18.0,78,-99.99,,,-99.99,,2013-03-13 10:52:00,
2013-03-13 07:02:00,55.0,49.0,30.06,NNW,333,15.0,19.0,79,-99.99,,,-99.99,,2013-03-13 11:02:00,
2013-03-13 07:12:00,55.0,49.0,30.06,NNW,333,15.0,19.0,79,-99.99,,,-99.99,,2013-03-13 11:12:00,
2013-03-13 07:22:00,55.0,48.0,30.08,NNW,341,13.0,16.0,78,-99.99,,,-99.99,,2013-03-13 11:22:00,
2013-03-13 07:32:00,55.0,48.0,30.08,NNW,341,13.0,16.0,78,-99.99,,,-99.99,,2013-03-13 11:32:00,
2013-03-13 07:42:00,55.0,48.0,30.08,NNW,343,15.0,19.0,75,-99.99,,,-99.99,,2013-03-13 11:42:00,
2013-03-13 07:53:00,55.0,48.0,30.08,NNW,343,15.0,19.0,75,-99.99,,,-99.99,,2013-03-13 11:53:00,
2013-03-13 08:00:00,56.0,46.0,30.09,NNW,329,18.0,24.0,67,-99.99,,,-99.99,,2013-03-13 12:00:00,
2013-03-13 08:02:00,55.0,47.0,30.08,NNW,336,16.0,20.0,72,-99.99,,,-99.99,,2013-03-13 12:02:00,
2013-03-13 08:12:00,55.0,47.0,30.08,NNW,336,16.0,20.0,72,-99.99,,,-99.99,,2013-03-13 12:12:00,
2013-03-13 08:22:00,56.0,46.0,30.09,NNW,329,18.0,24.0,67,-99.99,,,-99.99,,2013-03-13 12:22:00,
2013-03-13 08:32:00,56.0,46.0,30.09,NNW,329,18.0,24.0,67,-99.99,,,-99.99,,2013-03-13 12:32:00,
2013-03-13 08:42:00,56.0,46.0,30.09,NNW,329,18.0,24.0,67,-99.99,,,-99.99,,2013-03-13 12:42:00,
2013-03-13 08:53:00,56.0,46.0,30.09,NNW,329,18.0,24.0,67,-99.99,,,-99.99,,2013-03-13 12:53:00,
2013-03-13 09:43:00,56.0,44.0,30.12,SSW,213,18.0,22.0,63,-99.99,,,-99.99,,2013-03-13 13:43:00,
2013-03-13 09:53:00,56.0,44.0,30.12,SSW,213,18.0,22.0,63,-99.99,,,-99.99,,2013-03-13 13:53:00,
2013-03-13 10:03:00,56.0,44.0,30.12,SSW,213,18.0,22.0,63,-99.99,,,-99.99,,2013-03-13 14:03:00,
2013-03-13 10:12:00,56.0,44.0,30.12,SSW,213,18.0,22.0,63,-99.99,,,-99.99,,2013-03-13 14:12:00,
2013-03-13 10:53:00,59.0,43.0,30.14,NNW,330,16.0,20.0,55,-99.99,,,-99.99,,2013-03-13 14:53:00,
2013-03-13 11:03:00,59.0,43.0,30.14,NNW,330,16.0,20.0,55,-99.99,,,-99.99,,2013-03-13 15:03:00,
2013-03-13 11:12:00,59.0,42.0,30.14,NW,326,15.0,19.0,52,-99.99,,,-99.99,,2013-03-13 15:12:00,
2013-03-13 11:22:00,59.0,42.0,30.14,NW,326,15.0,19.0,52,-99.99,,,-99.99,,2013-03-13 15:22:00,
2013-03-13 11:32:00,59.0,42.0,30.14,NW,326,15.0,19.0,52,-99.99,,,-99.99,,2013-03-13 15:32:00,
2013-03-13 11:43:00,60.0,42.0,30.14,NNW,342,17.0,20.0,51,-99.99,,,-99.99,,2013-03-13 15:43:00,
2013-03-13 11:53:00,61.0,40.0,30.15,NNW,342,17.0,20.0,47,-99.99,,,-99.99,,2013-03-13 15:53:00,
2013-03-13 12:03:00,61.0,41.0,30.15,NNW,332,13.0,17.0,48,-99.99,,,-99.99,,2013-03-13 16:03:00,
2013-03-13 12:12:00,61.0,41.0,30.15,NNW,332,13.0,17.0,48,-99.99,,,-99.99,,2013-03-13 16:12:00,
2013-03-13 12:22:00,63.0,42.0,30.15,NNW,329,11.0,16.0,45,-99.99,,,-99.99,,2013-03-13 16:22:00,
2013-03-13 12:32:00,63.0,42.0,30.15,NNW,329,11.0,16.0,45,-99.99,,,-99.99,,2013-03-13 16:32:00,
2013-03-13 12:42:00,64.0,41.0,30.15,NNW,329,11.0,14.0,44,-99.99,,,-99.99,,2013-03-13 16:42:00,
2013-03-13 12:52:00,65.0,42.0,30.14,NW,323,13.0,16.0,43,-99.99,,,-99.99,,2013-03-13 16:52:00,
2013-03-13 13:03:00,65.0,42.0,30.14,NW,323,13.0,16.0,43,-99.99,,,-99.99,,2013-03-13 17:03:00,
2013-03-13 13:12:00,65.0,42.0,30.14,NW,323,13.0,16.0,43,-99.99,,,-99.99,,2013-03-13 17:12:00,
2013-03-13 13:23:00,66.0,41.0,30.14,NNW,340,15.0,21.0,40,-99.99,,,-99.99,,2013-03-13 17:23:00,
2013-03-13 13:33:00,66.0,41.0,30.14,NNW,340,15.0,21.0,40,-99.99,,,-99.99,,2013-03-13 17:33:00,
2013-03-13 13:42:00,66.0,42.0,30.14,NNW,332,14.0,21.0,40,-99.99,,,-99.99,,2013-03-13 17:42:00,
2013-03-13 13:53:00,66.0,42.0,30.14,NNW,332,14.0,21.0,40,-99.99,,,-99.99,,2013-03-13 17:53:00,
2013-03-13 14:02:00,67.0,43.0,30.13,NNW,327,12.0,17.0,42,-99.99,,,-99.99,,2013-03-13 18:02:00,
2013-03-13 14:13:00,67.0,43.0,30.13,NNW,327,12.0,17.0,42,-99.99,,,-99.99,,2013-03-13 18:13:00,
2013-03-13 14:22:00,68.0,44.0,30.12,NNW,328,11.0,15.0,41,-99.99,,,-99.99,,2013-03-13 18:22:00,
2013-03-13 14:33:00,68.0,44.0,30.12,NNW,328,11.0,15.0,41,-99.99,,,-99.99,,2013-03-13 18:33:00,
2013-03-13 14:42:00,68.0,44.0,30.12,NW,322,10.0,13.0,42,-99.99,,,-99.99,,2013-03-13 18:42:00,
2013-03-13 14:52:00,68.0,44.0,30.12,NW,322,10.0,13.0,42,-99.99,,,-99.99,,2013-03-13 18:52:00,
2013-03-13 15:03:00,68.0,45.0,30.11,NW,315,9.0,12.0,42,-99.99,,,-99.99,,2013-03-13 19:03:00,
2013-03-13 15:12:00,68.0,45.0,30.11,NW,315,9.0,12.0,42,-99.99,,,-99.99,,2013-03-13 19:12:00,
2013-03-13 15:22:00,69.0,46.0,30.10,NW,326,9.0,14.0,43,-99.99,,,-99.99,,2013-03-13 19:22:00,
2013-03-13 15:32:00,69.0,46.0,30.10,NW,323,10.0,13.0,43,-99.99,,,-99.99,,2013-03-13 19:32:00,
2013-03-13 15:43:00,69.0,46.0,30.10,NW,323,10.0,13.0,43,-99.99,,,-99.99,,2013-03-13 19:43:00,
2013-03-13 15:53:00,70.0,46.0,30.09,NNW,330,10.0,15.0,42,-99.99,,,-99.99,,2013-03-13 19:53:00,
2013-03-13 16:02:00,70.0,46.0,30.09,NNW,330,10.0,15.0,42,-99.99,,,-99.99,,2013-03-13 20:02:00,
2013-03-13 16:13:00,69.0,47.0,30.08,NNW,328,10.0,15.0,44,-99.99,,,-99.99,,2013-03-13 20:13:00,
2013-03-13 16:22:00,69.0,47.0,30.08,NNW,328,10.0,15.0,44,-99.99,,,-99.99,,2013-03-13 20:22:00,
2013-03-13 16:32:00,69.0,47.0,30.08,NNW,328,10.0,15.0,44,-99.99,,,-99.99,,2013-03-13 20:32:00,
2013-03-13 16:42:00,70.0,45.0,30.08,NNW,328,11.0,17.0,41,-99.99,,,-99.99,,2013-03-13 20:42:00,
2013-03-13 16:52:00,69.0,43.0,30.07,NNW,331,12.0,15.0,39,-99.99,,,-99.99,,2013-03-13 20:52:00,
2013-03-13 17:02:00,69.0,44.0,30.07,NNW,336,11.0,15.0,40,-99.99,,,-99.99,,2013-03-13 21:02:00,
2013-03-13 17:12:00,69.0,44.0,30.07,NNW,336,11.0,15.0,40,-99.99,,,-99.99,,2013-03-13 21:12:00,
2013-03-13 17:22:00,69.0,42.0,30.06,NNW,342,13.0,17.0,37,-99.99,,,-99.99,,2013-03-13 21:22:00,
2013-03-13 17:33:00,69.0,45.0,30.07,NW,317,13.0,18.0,41,-99.99,,,-99.99,,2013-03-13 21:33:00,
2013-03-13 17:42:00,69.0,45.0,30.07,NW,317,13.0,18.0,41,-99.99,,,-99.99,,2013-03-13 21:42:00,
2013-03-13 17:52:00,69.0,46.0,30.06,NNW,332,13.0,16.0,43,-99.99,,,-99.99,,2013-03-13 21:52:00,
2013-03-13 18:02:00,69.0,46.0,30.06,NNW,332,13.0,16.0,43,-99.99,,,-99.99,,2013-03-13 22:02:00,
2013-03-13 18:12:00,69.0,44.0,30.06,NNW,338,13.0,19.0,41,-99.99,,,-99.99,,2013-03-13 22:12:00,
2013-03-13 18:22:00,69.0,44.0,30.06,NNW,338,13.0,19.0,41,-99.99,,,-99.99,,2013-03-13 22:22:00,
2013-03-13 18:32:00,69.0,46.0,30.06,NW,326,11.0,14.0,44,-99.99,,,-99.99,,2013-03-13 22:32:00,
2013-03-13 18:42:00,69.0,46.0,30.06,NW,326,11.0,14.0,44,-99.99,,,-99.99,,2013-03-13 22:42:00,
2013-03-13 18:52:00,69.0,45.0,30.06,SW,233,9.0,13.0,41,-99.99,,,-99.99,,2013-03-13 22:52:00,
2013-03-13 19:02:00,69.0,45.0,30.06,SW,233,9.0,13.0,41,-99.99,,,-99.99,,2013-03-13 23:02:00,
2013-03-13 19:12:00,68.0,46.0,30.06,SW,215,5.0,7.0,45,-99.99,,,-99.99,,2013-03-13 23:12:00,
2013-03-13 19:22:00,68.0,46.0,30.06,SW,215,5.0,7.0,45,-99.99,,,-99.99,,2013-03-13 23:22:00,
2013-03-13 19:32:00,68.0,46.0,30.06,SW,215,5.0,7.0,45,-99.99,,,-99.99,,2013-03-13 23:32:00,
2013-03-13 19:42:00,69.0,45.0,30.06,SW,229,5.0,6.0,42,-99.99,,,-99.99,,2013-03-13 23:42:00,
2013-03-13 19:52:00,67.0,50.0,30.06,WNW,291,2.0,4.0,54,-99.99,,,-99.99,,2013-03-13 23:52:00,
2013-03-13 20:02:00,67.0,50.0,30.06,WNW,291,2.0,4.0,54,-99.99,,,-99.99,,2013-03-14 00:02:00,
2013-03-13 20:13:00,64.0,46.0,30.06,NW,314,1.0,3.0,51,-99.99,,,-99.99,,2013-03-14 00:13:00,
2013-03-13 20:22:00,62.0,43.0,30.07,NW,318,1.0,3.0,48,-99.99,,,-99.99,,2013-03-14 00:22:00,
2013-03-13 20:32:00,62.0,43.0,30.07,NW,318,1.0,3.0,48,-99.99,,,-99.99,,2013-03-14 00:32:00,
2013-03-13 20:42:00,60.0,43.0,30.07,West,267,2.0,3.0,53,-99.99,,,-99.99,,2013-03-14 00:42:00,
2013-03-13 20:52:00,60.0,43.0,30.07,West,267,2.0,3.0,53,-99.99,,,-99.99,,2013-03-14 00:52:00,
2013-03-13 21:02:00,58.0,43.0,30.07,WNW,283,3.0,3.0,57,-99.99,,,-99.99,,2013-03-14 01:02:00,
2013-03-13 21:12:00,58.0,43.0,30.07,WNW,283,3.0,3.0,57,-99.99,,,-99.99,,2013-03-14 01:12:00,
2013-03-13 21:23:00,56.0,42.0,30.09,West,259,2.0,3.0,58,-99.99,,,-99.99,,2013-03-14 01:23:00,
2013-03-13 21:32:00,56.0,42.0,30.09,West,259,2.0,3.0,58,-99.99,,,-99.99,,2013-03-14 01:32:00,
2013-03-13 21:42:00,58.0,43.0,30.11,WNW,286,6.0,13.0,56,-99.99,,,-99.99,,2013-03-14 01:42:00,
2013-03-13 21:53:00,58.0,43.0,30.11,WNW,286,6.0,13.0,56,-99.99,,,-99.99,,2013-03-14 01:53:00,
2013-03-13 22:02:00,62.0,46.0,30.12,SSW,208,8.0,12.0,55,-99.99,,,-99.99,,2013-03-14 02:02:00,
2013-03-13 22:12:00,62.0,46.0,30.12,SSW,208,8.0,12.0,55,-99.99,,,-99.99,,2013-03-14 02:12:00,
2013-03-13 22:22:00,62.0,44.0,30.14,NNW,329,12.0,20.0,51,-99.99,,,-99.99,,2013-03-14 02:22:00,
2013-03-13 22:32:00,62.0,44.0,30.14,NNW,329,12.0,20.0,51,-99.99,,,-99.99,,2013-03-14 02:32:00,
2013-03-13 22:42:00,62.0,44.0,30.14,NNW,329,12.0,20.0,51,-99.99,,,-99.99,,2013-03-14 02:42:00,
2013-03-13 22:52:00,62.0,44.0,30.14,NNW,329,12.0,20.0,51,-99.99,,,-99.99,,2013-03-14 02:52:00,
2013-03-13 23:02:00,62.0,45.0,30.15,NW,326,12.0,17.0,53,-99.99,,,-99.99,,2013-03-14 03:02:00,
2013-03-13 23:12:00,62.0,45.0,30.15,NW,326,12.0,17.0,53,-99.99,,,-99.99,,2013-03-14 03:12:00,
2013-03-13 23:23:00,61.0,45.0,30.16,NW,320,8.0,14.0,55,-99.99,,,-99.99,,2013-03-14 03:23:00,
2013-03-13 23:32:00,61.0,45.0,30.16,NW,320,8.0,14.0,55,-99.99,,,-99.99,,2013-03-14 03:32:00,
2013-03-13 23:42:00,60.0,45.0,30.17,WNW,294,7.0,14.0,56,-99.99,,,-99.99,,2013-03-14 03:42:00,
2013-03-13 23:53:00,60.0,45.0,30.17,WNW,294,7.0,14.0,56,-99.99,,,-99.99,,2013-03-14 03:53:00,